Time;durP1;ratioP1;P1;durP2;ratioP2;P2;SDS_P1;SDS_P2;PMS_P1;PMS_P2;Temp;Humidity;BMP_temperature;BMP_pressure;BME280_temperature;BME280_humidity;BME280_pressure;Samples;Min_cycle;Max_cycle;Signal;HPM_P1;HPM_P2
2023/11/21 00:01:08;;;;;;;7.30;1.70;;;;;;;8.14;100.00;99456.52;109875;1281;22565;-78
2023/11/21 00:04:19;;;;;;;8.40;1.20;;;;;;;8.14;100.00;99456.25;109036;1282;25423;-77
2023/11/21 00:07:11;;;;;;;9.70;1.80;;;;;;;8.12;100.00;99458.55;107257;1275;23065;-77
2023/11/21 00:10:25;;;;;;;14.40;1.60;;;;;;;8.11;100.00;99459.65;109986;1272;22404;-77
2023/11/21 00:13:37;;;;;;;5.60;1.10;;;;;;;8.10;100.00;99461.52;110116;1273;22280;-78
2023/11/21 00:16:27;;;;;;;8.40;1.30;;;;;;;8.10;100.00;99466.09;109988;1276;25263;-78
2023/11/21 00:19:36;;;;;;;13.60;1.50;;;;;;;8.08;100.00;99466.08;110291;1274;23070;-78
2023/11/21 00:22:08;;;;;;;8.40;2.00;;;;;;;8.07;100.00;99469.70;110508;1272;22183;-78
2023/11/21 00:25:28;;;;;;;7.20;1.20;;;;;;;8.07;100.00;99473.52;110476;1261;22565;-78
2023/11/21 00:28:38;;;;;;;11.20;1.60;;;;;;;8.07;100.00;99474.28;109838;1275;22218;-78
2023/11/21 00:31:41;;;;;;;9.10;1.40;;;;;;;8.06;100.00;99474.63;107276;1281;24916;-77
2023/11/21 00:34:56;;;;;;;10.90;1.60;;;;;;;8.05;100.00;99479.11;109958;1278;22255;-78
2023/11/21 00:38:12;;;;;;;12.40;1.60;;;;;;;8.03;100.00;99479.54;109990;1281;22244;-78
2023/11/21 00:41:31;;;;;;;6.90;1.20;;;;;;;8.01;100.00;99484.41;109677;1285;22218;-78
2023/11/21 00:44:31;;;;;;;6.30;1.30;;;;;;;8.00;100.00;99484.89;109396;1288;22206;-78
2023/11/21 00:47:46;;;;;;;5.70;1.20;;;;;;;7.99;100.00;99483.91;109410;1273;22226;-78
2023/11/21 00:51:00;;;;;;;9.80;1.20;;;;;;;7.98;100.00;99482.63;109364;1289;22888;-78
2023/11/21 00:53:44;;;;;;;6.70;1.00;;;;;;;7.97;100.00;99481.89;109410;1289;22258;-78
2023/11/21 00:57:34;;;;;;;12.70;1.30;;;;;;;7.96;100.00;99484.00;109451;1281;22267;-78
2023/11/21 01:00:44;;;;;;;9.30;1.90;;;;;;;7.94;100.00;99484.73;109484;1286;23036;-79
2023/11/21 01:03:54;;;;;;;9.10;1.40;;;;;;;7.93;100.00;99481.99;109266;1291;22855;-78
2023/11/21 01:07:27;;;;;;;10.90;1.40;;;;;;;7.92;100.00;99479.52;109468;1286;22503;-79
2023/11/21 01:10:36;;;;;;;6.80;1.30;;;;;;;7.91;100.00;99479.11;109332;1283;23471;-79
2023/11/21 01:14:10;;;;;;;13.60;2.40;;;;;;;7.90;100.00;99482.94;109192;1288;22215;-78
2023/11/21 01:17:04;;;;;;;9.30;1.80;;;;;;;7.89;100.00;99488.98;108765;1295;22449;-78
2023/11/21 01:19:59;;;;;;;8.80;1.60;;;;;;;7.87;100.00;99489.16;109217;1292;22384;-78
2023/11/21 01:22:49;;;;;;;7.80;1.30;;;;;;;7.87;100.00;99485.83;109355;1290;22345;-79
2023/11/21 01:26:21;;;;;;;12.50;1.70;;;;;;;7.88;100.00;99487.70;109185;1286;23373;-78
2023/11/21 01:29:53;;;;;;;8.50;1.40;;;;;;;7.87;100.00;99488.09;109394;1290;22222;-79
2023/11/21 01:32:46;;;;;;;6.20;1.20;;;;;;;7.87;100.00;99495.47;109654;1286;22235;-79
2023/11/21 01:35:38;;;;;;;6.20;1.40;;;;;;;7.86;100.00;99493.58;109684;1276;22227;-79
2023/11/21 01:39:26;;;;;;;7.70;1.50;;;;;;;7.86;100.00;99497.63;109797;1283;22395;-78
2023/11/21 01:43:04;;;;;;;7.40;1.60;;;;;;;7.86;100.00;99497.17;109801;1281;22419;-78
2023/11/21 01:45:56;;;;;;;9.00;1.90;;;;;;;7.85;100.00;99497.61;109958;1273;23053;-79
2023/11/21 01:49:26;;;;;;;6.40;1.30;;;;;;;7.84;100.00;99498.46;110161;1277;22291;-78
2023/11/21 01:52:56;;;;;;;10.50;1.40;;;;;;;7.84;100.00;99498.77;109904;1281;22349;-78
2023/11/21 01:55:51;;;;;;;7.30;1.40;;;;;;;7.84;100.00;99499.41;109972;1280;22416;-78
2023/11/21 01:59:04;;;;;;;9.50;1.50;;;;;;;7.84;100.00;99497.39;109978;1278;22243;-78
2023/11/21 02:02:37;;;;;;;8.30;1.50;;;;;;;7.84;100.00;99498.45;109972;1278;23213;-78
2023/11/21 02:05:48;;;;;;;6.50;1.00;;;;;;;7.84;100.00;99499.66;109914;1281;22285;-78
2023/11/21 02:09:02;;;;;;;8.70;1.30;;;;;;;7.83;100.00;99498.19;109812;1284;22405;-77
2023/11/21 02:11:55;;;;;;;8.40;1.50;;;;;;;7.82;100.00;99496.40;109947;1278;22262;-78
2023/11/21 02:14:48;;;;;;;9.20;1.50;;;;;;;7.81;100.00;99494.30;109807;1284;22397;-78
2023/11/21 02:17:20;;;;;;;4.20;1.20;;;;;;;7.80;100.00;99497.02;109796;1284;22986;-78
2023/11/21 02:19:51;;;;;;;7.60;1.40;;;;;;;7.80;100.00;99498.13;109895;1275;23337;-78
2023/11/21 02:22:52;;;;;;;7.10;1.30;;;;;;;7.80;100.00;99501.15;109924;1275;23477;-78
2023/11/21 02:25:44;;;;;;;7.80;1.30;;;;;;;7.78;100.00;99498.19;109966;1270;22382;-78
2023/11/21 02:28:34;;;;;;;8.10;1.40;;;;;;;7.76;100.00;99501.49;110273;1277;22386;-78
2023/11/21 02:32:06;;;;;;;8.70;1.30;;;;;;;7.76;100.00;99503.50;110284;1273;22088;-78
2023/11/21 02:35:57;;;;;;;5.70;1.70;;;;;;;7.74;100.00;99503.13;110585;1273;22228;-78
2023/11/21 02:39:02;;;;;;;6.20;1.00;;;;;;;7.73;100.00;99508.20;110305;1269;22228;-78
2023/11/21 02:41:55;;;;;;;7.60;1.40;;;;;;;7.72;100.00;99512.83;110131;1275;22234;-78
2023/11/21 02:44:45;;;;;;;7.70;1.30;;;;;;;7.73;100.00;99515.02;109961;1273;22354;-78
2023/11/21 02:47:40;;;;;;;6.70;1.70;;;;;;;7.74;100.00;99512.02;109948;1278;22218;-79
2023/11/21 02:50:12;;;;;;;6.10;1.60;;;;;;;7.74;100.00;99513.13;109957;1281;22209;-79
2023/11/21 02:53:24;;;;;;;7.70;1.70;;;;;;;7.75;100.00;99512.22;109934;1276;22220;-78
2023/11/21 02:56:34;;;;;;;9.00;1.20;;;;;;;7.75;100.00;99515.52;110071;1275;22286;-80
2023/11/21 02:59:09;;;;;;;8.00;2.10;;;;;;;7.76;100.00;99515.59;110282;1277;22232;-79
2023/11/21 03:01:45;;;;;;;8.10;1.50;;;;;;;7.76;100.00;99520.95;110263;1273;22373;-79
2023/11/21 03:04:17;;;;;;;9.80;1.80;;;;;;;7.75;100.00;99518.45;110265;1273;22195;-79
2023/11/21 03:07:50;;;;;;;8.10;2.00;;;;;;;7.77;100.00;99514.39;110288;1273;22253;-79
2023/11/21 03:10:41;;;;;;;8.30;1.80;;;;;;;7.78;100.00;99515.21;110182;1278;22197;-79
2023/11/21 03:13:51;;;;;;;11.50;2.00;;;;;;;7.78;100.00;99513.30;110181;1278;23309;-79
2023/11/21 03:16:41;;;;;;;8.40;1.90;;;;;;;7.79;100.00;99518.21;109887;1281;22199;-78
2023/11/21 03:19:35;;;;;;;10.30;2.20;;;;;;;7.78;100.00;99513.45;109769;1284;22315;-78
2023/11/21 03:22:45;;;;;;;9.70;2.20;;;;;;;7.78;100.00;99514.25;109736;1279;23393;-77
2023/11/21 03:26:18;;;;;;;11.50;2.20;;;;;;;7.77;100.00;99515.25;109771;1282;22202;-78
2023/11/21 03:29:33;;;;;;;8.60;2.00;;;;;;;7.78;100.00;99516.52;109571;1287;22344;-78
2023/11/21 03:32:50;;;;;;;8.40;2.40;;;;;;;7.76;100.00;99520.19;109545;1287;22435;-78
2023/11/21 03:35:27;;;;;;;11.00;2.10;;;;;;;7.77;100.00;99524.59;109644;1281;23042;-78
2023/11/21 03:38:39;;;;;;;11.70;2.50;;;;;;;7.77;100.00;99526.46;109809;1277;22230;-78
2023/11/21 03:41:52;;;;;;;12.40;2.60;;;;;;;7.77;100.00;99527.33;109532;1270;22278;-78
2023/11/21 03:45:20;;;;;;;12.30;1.90;;;;;;;7.78;100.00;99531.49;109451;1289;22236;-78
2023/11/21 03:48:36;;;;;;;12.70;2.40;;;;;;;7.77;100.00;99525.20;109544;1287;22230;-79
2023/11/21 03:51:45;;;;;;;10.70;2.70;;;;;;;7.77;100.00;99529.02;109427;1283;22568;-78
2023/11/21 03:54:36;;;;;;;15.40;2.80;;;;;;;7.77;100.00;99524.24;109064;1292;22248;-79
2023/11/21 03:57:28;;;;;;;12.20;2.50;;;;;;;7.77;100.00;99530.66;109052;1293;22281;-79
2023/11/21 04:00:22;;;;;;;11.70;2.60;;;;;;;7.77;100.00;99531.05;109187;1286;22259;-78
2023/11/21 04:03:15;;;;;;;10.30;2.20;;;;;;;7.76;100.00;99536.66;109258;1289;22235;-79
2023/11/21 04:06:06;;;;;;;10.90;2.20;;;;;;;7.77;100.00;99539.55;109536;1280;22389;-80
2023/11/21 04:08:57;;;;;;;11.80;2.00;;;;;;;7.77;100.00;99538.29;109609;1284;22232;-79
2023/11/21 04:11:55;;;;;;;10.80;2.10;;;;;;;7.76;100.00;99542.36;109793;1276;22345;-80
2023/11/21 04:14:30;;;;;;;11.90;1.90;;;;;;;7.76;100.00;99542.20;110287;1277;22251;-79
2023/11/21 04:17:26;;;;;;;8.70;1.70;;;;;;;7.76;100.00;99542.45;110192;1271;22209;-79
2023/11/21 04:20:38;;;;;;;10.90;2.80;;;;;;;7.77;100.00;99547.18;110273;1277;22183;-80
2023/11/21 04:23:47;;;;;;;9.80;1.70;;;;;;;7.77;100.00;99546.07;110268;1277;22366;-79
2023/11/21 04:27:17;;;;;;;12.30;2.20;;;;;;;7.77;100.00;99545.36;110404;1266;23770;-79
2023/11/21 04:30:31;;;;;;;10.70;2.50;;;;;;;7.78;100.00;99552.39;110600;1259;22180;-78
2023/11/21 04:33:23;;;;;;;10.00;2.60;;;;;;;7.78;100.00;99558.77;110562;1266;23031;-79
2023/11/21 04:36:15;;;;;;;9.80;1.90;;;;;;;7.78;100.00;99559.27;110160;1271;22963;-80
2023/11/21 04:38:50;;;;;;;11.30;2.20;;;;;;;7.77;100.00;99561.94;109945;1274;22264;-79
2023/11/21 04:42:03;;;;;;;9.10;1.80;;;;;;;7.77;100.00;99558.70;109970;1278;22269;-79
2023/11/21 04:44:40;;;;;;;8.20;2.00;;;;;;;7.76;100.00;99559.84;109768;1284;22192;-80
2023/11/21 04:47:12;;;;;;;11.20;2.40;;;;;;;7.76;100.00;99558.08;109795;1277;22243;-79
2023/11/21 04:49:46;;;;;;;6.80;1.60;;;;;;;7.75;100.00;99557.45;109790;1277;23138;-78
2023/11/21 04:52:48;;;;;;;7.50;1.70;;;;;;;7.75;100.00;99557.95;109798;1277;22211;-79
2023/11/21 04:56:15;;;;;;;5.50;1.50;;;;;;;7.75;100.00;99560.14;110036;1273;22692;-77
2023/11/21 04:59:26;;;;;;;10.60;1.70;;;;;;;7.74;100.00;99565.92;110244;1274;22358;-78
2023/11/21 05:02:19;;;;;;;9.20;1.70;;;;;;;7.74;100.00;99568.64;110335;1275;22315;-79
2023/11/21 05:05:29;;;;;;;9.70;2.10;;;;;;;7.73;100.00;99572.10;110549;1266;23277;-79
2023/11/21 05:08:02;;;;;;;7.40;1.40;;;;;;;7.72;100.00;99575.09;110579;1266;22972;-79
2023/11/21 05:10:38;;;;;;;10.30;1.20;;;;;;;7.70;100.00;99576.84;110567;1261;22257;-78
2023/11/21 05:13:53;;;;;;;6.80;1.00;;;;;;;7.67;100.00;99579.67;110517;1266;22179;-79
2023/11/21 05:17:28;;;;;;;4.50;1.00;;;;;;;7.65;100.00;99585.07;110552;1272;22551;-79
2023/11/21 05:20:23;;;;;;;10.60;1.70;;;;;;;7.62;100.00;99581.92;110564;1259;22341;-79
2023/11/21 05:23:15;;;;;;;6.30;1.30;;;;;;;7.61;100.00;99584.39;110083;1270;22308;-79
2023/11/21 05:26:17;;;;;;;6.60;1.50;;;;;;;7.60;100.00;99586.34;110136;1271;22248;-79
2023/11/21 05:28:54;;;;;;;5.50;1.20;;;;;;;7.60;100.00;99589.61;110053;1272;23086;-80
2023/11/21 05:31:24;;;;;;;5.30;1.50;;;;;;;7.59;100.00;99586.94;110189;1278;22997;-79
2023/11/21 05:34:23;;;;;;;9.80;1.60;;;;;;;7.58;100.00;99591.10;110124;1274;22368;-79
2023/11/21 05:36:58;;;;;;;7.50;1.40;;;;;;;7.58;100.00;99594.06;110093;1278;22488;-78
2023/11/21 05:39:48;;;;;;;7.20;1.70;;;;;;;7.57;100.00;99592.35;110160;1278;22239;-77
2023/11/21 05:42:43;;;;;;;10.70;2.30;;;;;;;7.58;100.00;99595.17;110124;1278;22304;-78
2023/11/21 05:45:12;;;;;;;10.80;2.10;;;;;;;7.58;100.00;99597.70;110157;1278;23119;-78
2023/11/21 05:48:06;;;;;;;7.00;2.10;;;;;;;7.58;100.00;99602.61;110434;1262;22345;-78
2023/11/21 05:50:39;;;;;;;8.90;2.10;;;;;;;7.59;100.00;99606.07;110574;1270;22245;-79
2023/11/21 05:53:32;;;;;;;10.30;2.30;;;;;;;7.58;100.00;99604.28;110557;1273;22172;-79
2023/11/21 05:57:01;;;;;;;9.80;2.20;;;;;;;7.58;100.00;99608.76;110541;1273;22867;-79
2023/11/21 05:59:37;;;;;;;8.50;2.00;;;;;;;7.58;100.00;99609.44;110564;1273;22189;-79
2023/11/21 06:02:09;;;;;;;10.90;2.30;;;;;;;7.59;100.00;99609.90;110518;1273;22212;-78
2023/11/21 06:05:41;;;;;;;7.10;2.00;;;;;;;7.59;100.00;99610.11;110415;1269;22931;-77
2023/11/21 06:08:34;;;;;;;8.50;1.90;;;;;;;7.60;100.00;99610.77;110093;1276;22261;-77
2023/11/21 06:11:06;;;;;;;12.20;2.00;;;;;;;7.59;100.00;99613.61;110083;1277;22269;-77
2023/11/21 06:13:38;;;;;;;8.50;1.80;;;;;;;7.60;100.00;99616.43;110260;1269;22326;-77
2023/11/21 06:16:34;;;;;;;9.20;2.30;;;;;;;7.59;100.00;99620.86;110202;1275;23048;-76
2023/11/21 06:20:08;;;;;;;10.40;2.70;;;;;;;7.59;100.00;99623.48;110250;1270;22221;-77
2023/11/21 06:23:03;;;;;;;7.60;2.00;;;;;;;7.59;100.00;99628.75;110019;1272;22223;-77
2023/11/21 06:26:12;;;;;;;12.90;3.70;;;;;;;7.60;100.00;99634.46;110148;1269;23260;-77
2023/11/21 06:29:03;;;;;;;6.80;1.90;;;;;;;7.60;100.00;99640.38;110038;1276;22982;-77
2023/11/21 06:32:37;;;;;;;13.50;2.40;;;;;;;7.60;100.00;99645.29;110025;1272;22384;-78
2023/11/21 06:35:47;;;;;;;15.20;3.00;;;;;;;7.60;100.00;99649.21;109684;1273;22576;-77
2023/11/21 06:38:41;;;;;;;9.80;2.70;;;;;;;7.60;100.00;99652.05;108384;1272;22572;-77
2023/11/21 06:41:15;;;;;;;9.00;2.00;;;;;;;7.61;100.00;99654.23;110209;1272;22181;-77
2023/11/21 06:44:08;;;;;;;11.60;2.80;;;;;;;7.61;100.00;99655.50;110326;1276;23024;-76
2023/11/21 06:47:01;;;;;;;13.00;2.90;;;;;;;7.61;100.00;99658.34;110326;1276;22219;-77
2023/11/21 06:49:56;;;;;;;11.10;2.30;;;;;;;7.62;100.00;99660.42;109934;1281;22235;-76
2023/11/21 06:53:09;;;;;;;8.60;2.80;;;;;;;7.63;100.00;99658.63;110025;1277;22350;-76
2023/11/21 06:55:58;;;;;;;12.90;3.50;;;;;;;7.64;100.00;99663.65;110276;1277;22217;-76
2023/11/21 06:58:28;;;;;;;12.00;4.00;;;;;;;7.65;100.00;99663.83;110271;1277;22256;-75
2023/11/21 07:00:58;;;;;;;14.60;4.80;;;;;;;7.66;100.00;99665.06;110267;1269;23025;-76
2023/11/21 07:03:27;;;;;;;15.10;3.60;;;;;;;7.67;100.00;99669.02;110250;1277;23063;-76
2023/11/21 07:06:01;;;;;;;12.50;3.30;;;;;;;7.69;100.00;99673.11;110131;1277;22231;-76
2023/11/21 07:08:31;;;;;;;11.70;3.20;;;;;;;7.70;100.00;99672.60;110262;1277;22674;-76
2023/11/21 07:11:05;;;;;;;15.20;3.70;;;;;;;7.70;100.00;99670.41;110263;1277;23364;-75
2023/11/21 07:13:35;;;;;;;14.30;3.70;;;;;;;7.73;100.00;99671.25;110364;1273;22248;-75
2023/11/21 07:16:05;;;;;;;15.20;3.30;;;;;;;7.74;100.00;99671.23;110530;1273;22739;-76
2023/11/21 07:18:52;;;;;;;10.90;3.00;;;;;;;7.76;100.00;99671.95;110610;1273;23209;-75
2023/11/21 07:21:21;;;;;;;15.10;3.70;;;;;;;7.79;100.00;99673.80;110575;1273;22258;-76
2023/11/21 07:23:50;;;;;;;;;;;;;;;7.80;100.00;99673.18;110599;1273;22455;-76
2023/11/21 07:26:20;;;;;;;12.90;3.60;;;;;;;7.80;100.00;99679.05;110532;1273;22640;-75
2023/11/21 07:28:50;;;;;;;12.30;3.20;;;;;;;7.81;100.00;99676.64;110555;1273;22283;-76
2023/11/21 07:31:19;;;;;;;15.30;3.60;;;;;;;7.82;100.00;99681.16;110500;1271;22191;-75
2023/11/21 07:33:49;;;;;;;12.30;3.50;;;;;;;7.83;100.00;99686.52;110583;1273;22473;-76
2023/11/21 07:36:20;;;;;;;15.50;3.70;;;;;;;7.84;100.00;99685.54;110581;1273;22851;-75
2023/11/21 07:38:50;;;;;;;14.00;3.10;;;;;;;7.84;100.00;99689.98;110586;1273;22952;-76
2023/11/21 07:41:22;;;;;;;9.30;2.70;;;;;;;7.84;100.00;99685.95;110598;1273;22913;-76
2023/11/21 07:43:51;;;;;;;11.30;2.60;;;;;;;7.83;100.00;99687.15;110602;1270;23283;-76
2023/11/21 07:46:22;;;;;;;13.80;3.30;;;;;;;7.83;100.00;99687.65;110596;1273;22190;-75
2023/11/21 07:48:52;;;;;;;;;;;;;;;7.83;100.00;99689.15;110622;1273;22502;-76
2023/11/21 07:51:20;;;;;;;;;;;;;;;7.82;100.00;99687.87;110619;1273;22461;-76
2023/11/21 07:53:50;;;;;;;16.00;3.30;;;;;;;7.82;100.00;99688.42;110588;1273;22448;-76
2023/11/21 07:56:21;;;;;;;10.40;2.60;;;;;;;7.81;100.00;99692.57;110634;1273;22377;-75
2023/11/21 07:59:25;;;;;;;13.00;3.50;;;;;;;7.81;100.00;99694.81;110620;1273;22404;-76
2023/11/21 08:01:56;;;;;;;12.40;3.20;;;;;;;7.82;100.00;99694.45;110580;1266;22818;-76
2023/11/21 08:04:26;;;;;;;13.50;3.50;;;;;;;7.84;100.00;99699.73;110582;1273;23030;-75
2023/11/21 08:06:55;;;;;;;14.00;3.20;;;;;;;7.85;100.00;99696.09;110578;1269;22210;-76
2023/11/21 08:09:25;;;;;;;12.20;3.20;;;;;;;7.87;100.00;99697.03;106422;1273;5418241;-76
2023/11/21 08:11:55;;;;;;;12.20;3.70;;;;;;;7.88;100.00;99701.09;110583;1273;22959;-76
2023/11/21 08:14:25;;;;;;;15.90;3.50;;;;;;;7.90;100.00;99701.24;110583;1272;22158;-76
2023/11/21 08:16:57;;;;;;;14.20;3.50;;;;;;;7.91;100.00;99700.47;110587;1273;22243;-75
2023/11/21 08:19:27;;;;;;;14.70;3.60;;;;;;;7.93;100.00;99706.60;110586;1273;22206;-75
2023/11/21 08:21:59;;;;;;;15.00;3.50;;;;;;;7.94;100.00;99701.93;110616;1273;23106;-76
2023/11/21 08:24:29;;;;;;;15.30;4.00;;;;;;;7.96;100.00;99702.13;110565;1273;22145;-76
2023/11/21 08:26:58;;;;;;;12.40;3.20;;;;;;;7.98;100.00;99707.27;110553;1273;22222;-76
2023/11/21 08:29:28;;;;;;;12.60;3.00;;;;;;;7.99;100.00;99712.99;110450;1273;22223;-76
2023/11/21 08:31:59;;;;;;;12.50;4.10;;;;;;;7.99;100.00;99716.38;110544;1273;22331;-76
2023/11/21 08:34:29;;;;;;;14.20;3.50;;;;;;;7.99;100.00;99717.38;110577;1270;22161;-76
2023/11/21 08:37:00;;;;;;;13.00;3.10;;;;;;;7.99;100.00;99719.55;110595;1267;22341;-76
2023/11/21 08:39:30;;;;;;;15.40;3.70;;;;;;;7.99;100.00;99723.56;110589;1273;22181;-76
2023/11/21 08:42:19;;;;;;;13.20;3.40;;;;;;;8.00;100.00;99725.51;110585;1273;22304;-76
2023/11/21 08:45:11;;;;;;;14.40;3.20;;;;;;;8.00;100.00;99729.58;110552;1269;22174;-76
2023/11/21 08:47:40;;;;;;;13.90;3.50;;;;;;;8.01;100.00;99731.52;110627;1266;23178;-76
2023/11/21 08:50:12;;;;;;;12.60;3.30;;;;;;;8.01;100.00;99731.04;110618;1273;22189;-76
2023/11/21 08:52:42;;;;;;;13.10;2.90;;;;;;;8.00;100.00;99732.89;110567;1273;22281;-76
2023/11/21 08:55:16;;;;;;;16.90;3.70;;;;;;;8.00;100.00;99732.92;110587;1270;23079;-75
2023/11/21 08:57:46;;;;;;;13.80;3.30;;;;;;;8.00;100.00;99730.15;110620;1273;22367;-76
2023/11/21 09:00:19;;;;;;;12.80;3.40;;;;;;;8.01;100.00;99726.98;110620;1272;22269;-75
2023/11/21 09:02:49;;;;;;;15.70;3.90;;;;;;;8.02;100.00;99725.08;110620;1269;22350;-75
2023/11/21 09:05:20;;;;;;;12.40;3.30;;;;;;;8.04;100.00;99725.08;110580;1255;22194;-76
2023/11/21 09:07:50;;;;;;;12.10;2.60;;;;;;;8.06;100.00;99723.05;110580;1273;22364;-77
2023/11/21 09:10:29;;;;;;;9.30;2.60;;;;;;;8.09;100.00;99721.33;110592;1273;22201;-76
2023/11/21 09:12:59;;;;;;;10.50;3.10;;;;;;;8.09;100.00;99721.63;110606;1266;22242;-76
2023/11/21 09:15:29;;;;;;;9.00;2.10;;;;;;;8.11;100.00;99726.23;110602;1270;22280;-76
2023/11/21 09:17:59;;;;;;;11.30;2.90;;;;;;;8.11;100.00;99729.78;110618;1261;22432;-76
2023/11/21 09:20:28;;;;;;;14.90;3.10;;;;;;;8.13;100.00;99731.04;110616;1273;22856;-76
2023/11/21 09:23:01;;;;;;;12.40;3.30;;;;;;;8.17;100.00;99734.29;110627;1272;22226;-76
2023/11/21 09:25:31;;;;;;;12.20;3.00;;;;;;;8.20;100.00;99734.61;110641;1262;22212;-75
2023/11/21 09:28:00;;;;;;;15.20;3.40;;;;;;;8.22;100.00;99733.48;110610;1271;22382;-76
2023/11/21 09:30:32;;;;;;;13.10;3.20;;;;;;;8.24;100.00;99735.03;110549;1273;22298;-76
2023/11/21 09:33:02;;;;;;;10.40;2.50;;;;;;;8.26;100.00;99735.84;110643;1272;23002;-75
2023/11/21 09:35:54;;;;;;;12.90;3.70;;;;;;;8.28;100.00;99736.39;110588;1273;22917;-76
2023/11/21 09:38:24;;;;;;;11.80;3.00;;;;;;;8.30;100.00;99741.56;110476;1272;22268;-76
2023/11/21 09:40:55;;;;;;;11.40;3.10;;;;;;;8.32;100.00;99738.20;110621;1272;22221;-75
2023/11/21 09:43:26;;;;;;;;;;;;;;;8.35;100.00;99738.38;110598;1273;22538;-75
2023/11/21 09:46:00;;;;;;;12.80;2.80;;;;;;;8.37;100.00;99739.26;110607;1272;22712;-77
2023/11/21 09:48:33;;;;;;;12.60;2.70;;;;;;;8.38;100.00;99738.73;110595;1273;22951;-76
2023/11/21 09:51:03;;;;;;;9.80;2.50;;;;;;;8.40;100.00;99744.88;110645;1272;22189;-75
2023/11/21 09:53:33;;;;;;;;;;;;;;;8.40;100.00;99746.61;110610;1273;22508;-76
2023/11/21 09:56:04;;;;;;;11.20;2.80;;;;;;;8.39;100.00;99746.59;110585;1266;22487;-76
2023/11/21 09:58:34;;;;;;;13.00;2.60;;;;;;;8.39;100.00;99750.79;110613;1273;22204;-76
2023/11/21 10:01:07;;;;;;;12.50;2.80;;;;;;;8.40;100.00;99745.24;110598;1273;23025;-76
2023/11/21 10:03:38;;;;;;;8.40;2.30;;;;;;;8.41;100.00;99746.98;110480;1273;22153;-75
2023/11/21 10:06:10;;;;;;;10.80;2.80;;;;;;;8.42;100.00;99747.25;110634;1272;22410;-76
2023/11/21 10:08:39;;;;;;;7.90;2.10;;;;;;;8.44;100.00;99746.95;110585;1272;22958;-75
2023/11/21 10:11:11;;;;;;;12.70;3.30;;;;;;;8.46;100.00;99747.89;110579;1270;22178;-76
2023/11/21 10:13:41;;;;;;;9.30;2.60;;;;;;;8.47;100.00;99749.52;110597;1269;22187;-75
2023/11/21 10:16:16;;;;;;;14.60;3.00;;;;;;;8.49;100.00;99747.42;110546;1273;22396;-75
2023/11/21 10:18:45;;;;;;;13.50;2.60;;;;;;;8.49;100.00;99750.18;110611;1267;22166;-76
2023/11/21 10:21:16;;;;;;;8.50;1.80;;;;;;;8.48;100.00;99753.36;110501;1273;22237;-76
2023/11/21 10:23:47;;;;;;;11.20;1.90;;;;;;;8.46;100.00;99756.08;110620;1272;23139;-76
2023/11/21 10:26:20;;;;;;;13.80;4.50;;;;;;;8.44;100.00;99763.33;110616;1273;22181;-75
2023/11/21 10:28:58;;;;;;;25.80;9.50;;;;;;;8.44;100.00;99764.38;110574;1270;22338;-76
2023/11/21 10:31:29;;;;;;;25.00;10.90;;;;;;;8.39;100.00;99767.08;110625;1272;22181;-76
2023/11/21 10:34:15;;;;;;;29.80;13.80;;;;;;;8.28;100.00;99771.89;110586;1271;22147;-76
2023/11/21 10:36:45;;;;;;;31.80;14.00;;;;;;;8.13;100.00;99772.74;110627;1273;22184;-75
2023/11/21 10:39:18;;;;;;;33.90;14.40;;;;;;;8.06;100.00;99775.66;110637;1256;22350;-75
2023/11/21 10:41:49;;;;;;;30.70;14.80;;;;;;;7.98;100.00;99781.42;110614;1266;23032;-76
2023/11/21 10:44:20;;;;;;;30.10;12.80;;;;;;;7.96;100.00;99784.96;110647;1272;22381;-76
2023/11/21 10:46:50;;;;;;;29.20;14.00;;;;;;;7.85;100.00;99786.71;110508;1270;22874;-75
2023/11/21 10:49:19;;;;;;;;;;;;;;;7.74;100.00;99785.52;110638;1273;22433;-79
2023/11/21 10:51:50;;;;;;;28.20;11.70;;;;;;;7.69;100.00;99787.65;110643;1273;22353;-77
2023/11/21 10:54:23;;;;;;;30.10;14.00;;;;;;;7.61;100.00;99789.64;110569;1273;22331;-78
2023/11/21 10:56:57;;;;;;;31.40;13.60;;;;;;;7.59;100.00;99788.85;110603;1266;22396;-78
2023/11/21 10:59:30;;;;;;;28.00;11.20;;;;;;;7.53;100.00;99787.23;110597;1263;22206;-78
2023/11/21 11:02:03;;;;;;;27.90;12.50;;;;;;;7.42;100.00;99794.26;110613;1273;22956;-79
2023/11/21 11:04:37;;;;;;;32.50;13.60;;;;;;;7.34;100.00;99793.84;110604;1273;23089;-77
2023/11/21 11:07:13;;;;;;;28.40;13.70;;;;;;;7.34;100.00;99799.95;110605;1270;22150;-77
2023/11/21 11:09:45;;;;;;;28.80;11.40;;;;;;;7.27;100.00;99799.15;110437;1273;22188;-77
2023/11/21 11:12:14;;;;;;;32.80;14.20;;;;;;;7.17;100.00;99797.38;110595;1273;22496;-78
2023/11/21 11:14:44;;;;;;;31.10;14.40;;;;;;;7.14;100.00;99795.32;110488;1260;22961;-77
2023/11/21 11:17:14;;;;;;;31.20;13.20;;;;;;;7.12;100.00;99797.15;110603;1270;22975;-78
2023/11/21 11:19:45;;;;;;;40.50;17.40;;;;;;;7.06;100.00;99796.79;110594;1273;22771;-78
2023/11/21 11:22:25;;;;;;;29.30;14.40;;;;;;;7.07;100.00;99796.69;110631;1273;22432;-78
2023/11/21 11:25:14;;;;;;;34.10;14.80;;;;;;;7.06;100.00;99792.90;110610;1273;22414;-80
2023/11/21 11:27:53;;;;;;;31.90;14.50;;;;;;;7.06;100.00;99797.34;110610;1273;22875;-78
2023/11/21 11:30:38;;;;;;;37.60;15.00;;;;;;;7.00;100.00;99803.59;110608;1272;22189;-78
2023/11/21 11:33:15;;;;;;;39.40;17.00;;;;;;;6.95;100.00;99808.86;110584;1271;22614;-79
2023/11/21 11:35:53;;;;;;;32.20;14.10;;;;;;;6.91;100.00;99810.82;110583;1273;22220;-77
2023/11/21 11:38:24;;;;;;;32.40;16.10;;;;;;;6.88;100.00;99811.98;110633;1272;22629;-78
2023/11/21 11:40:55;;;;;;;33.70;15.40;;;;;;;6.84;100.00;99812.39;110604;1272;23115;-79
2023/11/21 11:43:32;;;;;;;33.10;16.90;;;;;;;6.78;100.00;99817.64;110618;1266;22373;-78
2023/11/21 11:46:03;;;;;;;43.90;16.50;;;;;;;6.73;100.00;99819.95;110537;1270;22223;-78
2023/11/21 11:48:38;;;;;;;36.70;18.90;;;;;;;6.63;100.00;99828.86;110612;1273;22171;-78
2023/11/21 11:51:14;;;;;;;40.40;18.70;;;;;;;6.60;100.00;99831.50;110501;1269;22190;-77
2023/11/21 11:53:46;;;;;;;39.30;16.50;;;;;;;6.56;100.00;99830.48;110541;1273;23048;-78
2023/11/21 11:56:25;;;;;;;47.10;19.20;;;;;;;6.47;100.00;99837.45;110588;1273;22402;-77
2023/11/21 11:58:56;;;;;;;35.60;16.80;;;;;;;6.47;100.00;99834.86;110448;1275;22199;-78
2023/11/21 12:01:27;;;;;;;39.20;17.90;;;;;;;6.43;100.00;99836.15;110599;1273;22166;-77
2023/11/21 12:04:31;;;;;;;39.70;17.20;;;;;;;6.39;100.00;99837.64;110528;1269;22176;-78
2023/11/21 12:07:05;;;;;;;40.90;20.50;;;;;;;6.36;100.00;99839.50;110537;1273;23013;-78
2023/11/21 12:09:34;;;;;;;28.70;13.40;;;;;;;6.36;100.00;99843.96;110641;1272;23087;-78
2023/11/21 12:12:05;;;;;;;34.70;15.60;;;;;;;6.28;100.00;99848.48;110620;1269;22158;-77
2023/11/21 12:14:34;;;;;;;33.20;16.10;;;;;;;6.26;100.00;99850.33;110457;1273;22985;-77
2023/11/21 12:17:04;;;;;;;34.30;15.20;;;;;;;6.26;100.00;99850.96;110586;1273;22647;-78
2023/11/21 12:19:34;;;;;;;32.60;14.80;;;;;;;6.22;100.00;99851.98;110598;1273;22988;-78
2023/11/21 12:22:03;;;;;;;29.00;13.80;;;;;;;6.19;100.00;99847.85;110617;1273;22255;-78
2023/11/21 12:24:33;;;;;;;30.40;12.50;;;;;;;6.12;100.00;99847.73;110613;1273;23061;-77
2023/11/21 12:27:02;;;;;;;31.90;14.30;;;;;;;6.05;100.00;99849.20;110562;1273;22623;-79
2023/11/21 12:29:33;;;;;;;26.70;11.60;;;;;;;6.01;100.00;99850.88;110572;1272;22995;-78
2023/11/21 12:32:02;;;;;;;30.50;13.20;;;;;;;5.98;100.00;99852.74;110633;1273;22228;-78
2023/11/21 12:34:33;;;;;;;29.20;13.10;;;;;;;5.92;100.00;99853.08;110622;1273;22159;-78
2023/11/21 12:37:02;;;;;;;25.00;10.90;;;;;;;5.87;100.00;99858.48;110613;1273;22411;-79
2023/11/21 12:39:31;;;;;;;27.60;12.90;;;;;;;5.84;100.00;99870.00;110606;1270;22178;-78
2023/11/21 12:42:00;;;;;;;30.30;11.80;;;;;;;5.80;100.00;99877.11;110592;1267;22218;-79
2023/11/21 12:44:31;;;;;;;31.70;12.40;;;;;;;5.75;100.00;99881.78;110608;1273;22956;-78
2023/11/21 12:47:01;;;;;;;25.10;11.20;;;;;;;5.73;100.00;99881.00;110609;1273;22166;-80
2023/11/21 12:49:32;;;;;;;23.60;9.00;;;;;;;5.69;100.00;99887.88;110620;1273;22227;-78